sensor_id;sensor_type;location;lat;lon;timestamp;P1;durP1;ratioP1;P2;durP2;ratioP2
71106;SDS011;58763;47.982;11.516;2023-02-28T00:01:13;7.70;;;3.67;;
71106;SDS011;58763;47.982;11.516;2023-02-28T00:03:40;6.53;;;3.25;;
71106;SDS011;58763;47.982;11.516;2023-02-28T00:06:06;9.10;;;3.67;;
71106;SDS011;58763;47.982;11.516;2023-02-28T00:08:34;7.38;;;3.85;;
71106;SDS011;58763;47.982;11.516;2023-02-28T00:11:04;9.27;;;4.22;;
71106;SDS011;58763;47.982;11.516;2023-02-28T00:13:33;5.88;;;3.20;;
71106;SDS011;58763;47.982;11.516;2023-02-28T00:16:02;7.28;;;3.28;;
71106;SDS011;58763;47.982;11.516;2023-02-28T00:18:32;7.13;;;3.03;;
71106;SDS011;58763;47.982;11.516;2023-02-28T00:20:58;8.73;;;3.42;;
71106;SDS011;58763;47.982;11.516;2023-02-28T00:23:24;6.43;;;3.33;;
71106;SDS011;58763;47.982;11.516;2023-02-28T00:25:51;6.10;;;3.17;;
71106;SDS011;58763;47.982;11.516;2023-02-28T00:28:16;6.85;;;3.47;;
71106;SDS011;58763;47.982;11.516;2023-02-28T00:30:43;6.93;;;4.03;;
71106;SDS011;58763;47.982;11.516;2023-02-28T00:33:10;6.82;;;3.30;;
71106;SDS011;58763;47.982;11.516;2023-02-28T00:35:35;7.13;;;3.72;;
71106;SDS011;58763;47.982;11.516;2023-02-28T00:38:01;6.43;;;3.28;;
71106;SDS011;58763;47.982;11.516;2023-02-28T00:40:27;6.85;;;3.45;;
71106;SDS011;58763;47.982;11.516;2023-02-28T00:42:53;10.07;;;3.80;;
71106;SDS011;58763;47.982;11.516;2023-02-28T00:45:19;7.28;;;3.92;;
71106;SDS011;58763;47.982;11.516;2023-02-28T00:47:45;6.80;;;3.83;;
71106;SDS011;58763;47.982;11.516;2023-02-28T00:50:11;8.70;;;3.70;;
71106;SDS011;58763;47.982;11.516;2023-02-28T00:52:37;7.97;;;3.90;;
71106;SDS011;58763;47.982;11.516;2023-02-28T00:55:03;6.80;;;3.53;;
71106;SDS011;58763;47.982;11.516;2023-02-28T00:57:29;6.65;;;3.33;;
71106;SDS011;58763;47.982;11.516;2023-02-28T00:59:55;7.53;;;3.72;;
71106;SDS011;58763;47.982;11.516;2023-02-28T01:02:21;8.45;;;3.78;;
71106;SDS011;58763;47.982;11.516;2023-02-28T01:04:47;8.10;;;3.75;;
71106;SDS011;58763;47.982;11.516;2023-02-28T01:07:13;6.32;;;3.33;;
71106;SDS011;58763;47.982;11.516;2023-02-28T01:09:39;8.77;;;4.15;;
71106;SDS011;58763;47.982;11.516;2023-02-28T01:12:06;6.95;;;3.60;;
71106;SDS011;58763;47.982;11.516;2023-02-28T01:14:34;7.53;;;3.55;;
71106;SDS011;58763;47.982;11.516;2023-02-28T01:17:00;8.60;;;4.30;;
71106;SDS011;58763;47.982;11.516;2023-02-28T01:19:26;6.50;;;3.78;;
71106;SDS011;58763;47.982;11.516;2023-02-28T01:21:51;6.97;;;3.67;;
71106;SDS011;58763;47.982;11.516;2023-02-28T01:24:17;8.93;;;3.92;;
71106;SDS011;58763;47.982;11.516;2023-02-28T01:26:43;8.15;;;3.75;;
71106;SDS011;58763;47.982;11.516;2023-02-28T01:29:09;8.07;;;3.80;;
71106;SDS011;58763;47.982;11.516;2023-02-28T01:31:34;8.23;;;3.70;;
71106;SDS011;58763;47.982;11.516;2023-02-28T01:34:00;7.45;;;4.00;;
71106;SDS011;58763;47.982;11.516;2023-02-28T01:36:26;6.85;;;3.83;;
71106;SDS011;58763;47.982;11.516;2023-02-28T01:38:51;6.97;;;3.80;;
71106;SDS011;58763;47.982;11.516;2023-02-28T01:41:28;7.07;;;3.95;;
71106;SDS011;58763;47.982;11.516;2023-02-28T01:46:32;7.13;;;3.60;;
71106;SDS011;58763;47.982;11.516;2023-02-28T01:49:09;8.23;;;3.70;;
71106;SDS011;58763;47.982;11.516;2023-02-28T01:54:18;6.75;;;3.80;;
71106;SDS011;58763;47.982;11.516;2023-02-28T01:56:49;8.90;;;3.97;;
71106;SDS011;58763;47.982;11.516;2023-02-28T01:59:29;7.82;;;3.97;;
71106;SDS011;58763;47.982;11.516;2023-02-28T02:01:57;6.32;;;3.45;;
71106;SDS011;58763;47.982;11.516;2023-02-28T02:04:23;7.10;;;3.90;;
71106;SDS011;58763;47.982;11.516;2023-02-28T02:06:52;6.82;;;3.72;;
71106;SDS011;58763;47.982;11.516;2023-02-28T02:09:19;7.65;;;4.10;;
71106;SDS011;58763;47.982;11.516;2023-02-28T02:11:44;7.78;;;3.85;;
71106;SDS011;58763;47.982;11.516;2023-02-28T02:16:57;7.40;;;3.95;;
71106;SDS011;58763;47.982;11.516;2023-02-28T02:24:56;10.85;;;4.07;;
71106;SDS011;58763;47.982;11.516;2023-02-28T02:27:46;7.78;;;3.97;;
71106;SDS011;58763;47.982;11.516;2023-02-28T02:36:22;7.63;;;3.70;;
71106;SDS011;58763;47.982;11.516;2023-02-28T02:41:45;7.40;;;3.45;;
71106;SDS011;58763;47.982;11.516;2023-02-28T02:47:18;9.15;;;4.43;;
71106;SDS011;58763;47.982;11.516;2023-02-28T02:49:54;9.18;;;4.32;;
71106;SDS011;58763;47.982;11.516;2023-02-28T02:52:25;8.90;;;4.10;;
71106;SDS011;58763;47.982;11.516;2023-02-28T02:54:58;8.07;;;4.30;;
71106;SDS011;58763;47.982;11.516;2023-02-28T02:57:27;8.38;;;4.57;;
71106;SDS011;58763;47.982;11.516;2023-02-28T02:59:58;10.65;;;4.47;;
71106;SDS011;58763;47.982;11.516;2023-02-28T03:02:27;8.75;;;4.07;;
71106;SDS011;58763;47.982;11.516;2023-02-28T03:05:00;9.73;;;4.82;;
71106;SDS011;58763;47.982;11.516;2023-02-28T03:07:29;9.43;;;4.70;;
71106;SDS011;58763;47.982;11.516;2023-02-28T03:09:56;9.57;;;4.55;;
71106;SDS011;58763;47.982;11.516;2023-02-28T03:12:23;8.27;;;4.38;;
71106;SDS011;58763;47.982;11.516;2023-02-28T03:23:00;8.85;;;4.65;;
71106;SDS011;58763;47.982;11.516;2023-02-28T03:28:42;12.25;;;4.75;;
71106;SDS011;58763;47.982;11.516;2023-02-28T03:31:26;9.88;;;4.70;;
71106;SDS011;58763;47.982;11.516;2023-02-28T03:34:04;12.10;;;5.40;;
71106;SDS011;58763;47.982;11.516;2023-02-28T03:36:38;8.65;;;4.60;;
71106;SDS011;58763;47.982;11.516;2023-02-28T03:39:11;10.40;;;4.15;;
71106;SDS011;58763;47.982;11.516;2023-02-28T03:41:44;7.80;;;4.30;;
71106;SDS011;58763;47.982;11.516;2023-02-28T03:47:03;9.23;;;4.10;;
71106;SDS011;58763;47.982;11.516;2023-02-28T03:49:35;8.05;;;4.13;;
71106;SDS011;58763;47.982;11.516;2023-02-28T03:52:08;10.43;;;4.68;;
71106;SDS011;58763;47.982;11.516;2023-02-28T03:54:36;7.65;;;4.68;;
71106;SDS011;58763;47.982;11.516;2023-02-28T03:57:27;7.95;;;4.25;;
71106;SDS011;58763;47.982;11.516;2023-02-28T04:00:08;9.40;;;4.72;;
71106;SDS011;58763;47.982;11.516;2023-02-28T04:02:37;8.93;;;4.75;;
71106;SDS011;58763;47.982;11.516;2023-02-28T04:05:03;10.25;;;5.00;;
71106;SDS011;58763;47.982;11.516;2023-02-28T04:07:29;9.85;;;5.38;;
71106;SDS011;58763;47.982;11.516;2023-02-28T04:09:56;7.80;;;4.65;;
71106;SDS011;58763;47.982;11.516;2023-02-28T04:12:23;8.95;;;4.65;;
71106;SDS011;58763;47.982;11.516;2023-02-28T04:14:49;11.93;;;5.72;;
71106;SDS011;58763;47.982;11.516;2023-02-28T04:17:15;11.48;;;5.28;;
71106;SDS011;58763;47.982;11.516;2023-02-28T04:19:41;11.95;;;5.45;;
71106;SDS011;58763;47.982;11.516;2023-02-28T04:22:07;8.80;;;4.72;;
71106;SDS011;58763;47.982;11.516;2023-02-28T04:24:34;10.23;;;4.90;;
71106;SDS011;58763;47.982;11.516;2023-02-28T04:27:00;9.77;;;4.63;;
71106;SDS011;58763;47.982;11.516;2023-02-28T04:29:27;9.90;;;5.40;;
71106;SDS011;58763;47.982;11.516;2023-02-28T04:31:54;7.95;;;4.55;;
71106;SDS011;58763;47.982;11.516;2023-02-28T04:34:24;9.90;;;5.10;;
71106;SDS011;58763;47.982;11.516;2023-02-28T04:36:51;7.82;;;4.43;;
71106;SDS011;58763;47.982;11.516;2023-02-28T04:39:19;10.13;;;4.85;;
71106;SDS011;58763;47.982;11.516;2023-02-28T04:41:48;10.98;;;5.38;;
71106;SDS011;58763;47.982;11.516;2023-02-28T04:44:14;9.63;;;5.38;;
71106;SDS011;58763;47.982;11.516;2023-02-28T04:46:40;9.73;;;5.03;;
71106;SDS011;58763;47.982;11.516;2023-02-28T04:49:05;11.05;;;5.70;;
71106;SDS011;58763;47.982;11.516;2023-02-28T04:51:31;10.82;;;5.20;;
71106;SDS011;58763;47.982;11.516;2023-02-28T04:53:57;10.85;;;5.28;;
71106;SDS011;58763;47.982;11.516;2023-02-28T04:56:22;11.95;;;5.45;;
71106;SDS011;58763;47.982;11.516;2023-02-28T04:58:48;11.10;;;5.70;;
71106;SDS011;58763;47.982;11.516;2023-02-28T05:03:44;12.65;;;6.00;;
71106;SDS011;58763;47.982;11.516;2023-02-28T05:06:10;12.10;;;5.93;;
71106;SDS011;58763;47.982;11.516;2023-02-28T05:08:38;13.77;;;6.32;;
71106;SDS011;58763;47.982;11.516;2023-02-28T05:11:05;10.85;;;6.35;;
71106;SDS011;58763;47.982;11.516;2023-02-28T05:13:33;12.35;;;6.45;;
71106;SDS011;58763;47.982;11.516;2023-02-28T05:16:00;12.45;;;6.22;;
71106;SDS011;58763;47.982;11.516;2023-02-28T05:18:26;12.73;;;6.45;;
71106;SDS011;58763;47.982;11.516;2023-02-28T05:20:51;12.98;;;6.05;;
71106;SDS011;58763;47.982;11.516;2023-02-28T05:23:17;13.05;;;6.43;;
71106;SDS011;58763;47.982;11.516;2023-02-28T05:25:45;12.38;;;5.88;;
71106;SDS011;58763;47.982;11.516;2023-02-28T05:28:10;12.00;;;6.63;;
71106;SDS011;58763;47.982;11.516;2023-02-28T05:30:36;13.77;;;6.35;;
71106;SDS011;58763;47.982;11.516;2023-02-28T05:33:02;11.63;;;5.95;;
71106;SDS011;58763;47.982;11.516;2023-02-28T05:35:27;13.20;;;6.18;;
71106;SDS011;58763;47.982;11.516;2023-02-28T05:37:53;12.57;;;6.57;;
71106;SDS011;58763;47.982;11.516;2023-02-28T05:40:18;12.57;;;7.05;;
71106;SDS011;58763;47.982;11.516;2023-02-28T05:42:47;14.65;;;6.78;;
71106;SDS011;58763;47.982;11.516;2023-02-28T05:45:12;14.52;;;7.25;;
71106;SDS011;58763;47.982;11.516;2023-02-28T05:47:38;14.30;;;6.85;;
71106;SDS011;58763;47.982;11.516;2023-02-28T05:50:04;15.70;;;6.68;;
71106;SDS011;58763;47.982;11.516;2023-02-28T05:52:30;13.73;;;6.88;;
71106;SDS011;58763;47.982;11.516;2023-02-28T05:54:56;15.93;;;7.03;;
71106;SDS011;58763;47.982;11.516;2023-02-28T05:57:22;16.33;;;7.82;;
71106;SDS011;58763;47.982;11.516;2023-02-28T05:59:48;15.68;;;7.22;;
71106;SDS011;58763;47.982;11.516;2023-02-28T06:02:14;16.20;;;7.32;;
71106;SDS011;58763;47.982;11.516;2023-02-28T06:04:41;15.18;;;7.38;;
71106;SDS011;58763;47.982;11.516;2023-02-28T06:07:07;15.77;;;7.60;;
71106;SDS011;58763;47.982;11.516;2023-02-28T06:09:33;15.82;;;8.25;;
71106;SDS011;58763;47.982;11.516;2023-02-28T06:11:59;15.80;;;7.90;;
71106;SDS011;58763;47.982;11.516;2023-02-28T06:14:28;14.82;;;7.63;;
71106;SDS011;58763;47.982;11.516;2023-02-28T06:16:53;17.67;;;7.60;;
71106;SDS011;58763;47.982;11.516;2023-02-28T06:19:19;16.52;;;8.65;;
71106;SDS011;58763;47.982;11.516;2023-02-28T06:21:45;17.83;;;8.55;;
71106;SDS011;58763;47.982;11.516;2023-02-28T06:24:14;18.10;;;8.75;;
71106;SDS011;58763;47.982;11.516;2023-02-28T06:26:40;16.95;;;8.50;;
71106;SDS011;58763;47.982;11.516;2023-02-28T06:29:05;17.85;;;8.65;;
71106;SDS011;58763;47.982;11.516;2023-02-28T06:31:31;18.45;;;8.80;;
71106;SDS011;58763;47.982;11.516;2023-02-28T06:33:57;17.13;;;8.70;;
71106;SDS011;58763;47.982;11.516;2023-02-28T06:36:22;17.92;;;8.70;;
71106;SDS011;58763;47.982;11.516;2023-02-28T06:38:48;16.50;;;9.00;;
71106;SDS011;58763;47.982;11.516;2023-02-28T06:41:22;20.73;;;9.38;;
71106;SDS011;58763;47.982;11.516;2023-02-28T06:43:51;22.13;;;10.05;;
71106;SDS011;58763;47.982;11.516;2023-02-28T06:46:17;17.73;;;8.93;;
71106;SDS011;58763;47.982;11.516;2023-02-28T06:48:44;17.00;;;9.05;;
71106;SDS011;58763;47.982;11.516;2023-02-28T06:51:13;19.98;;;9.52;;
71106;SDS011;58763;47.982;11.516;2023-02-28T06:53:45;18.17;;;9.18;;
71106;SDS011;58763;47.982;11.516;2023-02-28T06:56:12;19.45;;;9.52;;
71106;SDS011;58763;47.982;11.516;2023-02-28T06:58:39;19.33;;;8.80;;
71106;SDS011;58763;47.982;11.516;2023-02-28T07:01:05;19.25;;;10.02;;
71106;SDS011;58763;47.982;11.516;2023-02-28T07:03:31;20.23;;;9.88;;
71106;SDS011;58763;47.982;11.516;2023-02-28T07:05:57;21.27;;;9.85;;
71106;SDS011;58763;47.982;11.516;2023-02-28T07:08:23;18.83;;;9.77;;
71106;SDS011;58763;47.982;11.516;2023-02-28T07:10:53;20.42;;;9.45;;
71106;SDS011;58763;47.982;11.516;2023-02-28T07:13:19;22.17;;;10.73;;
71106;SDS011;58763;47.982;11.516;2023-02-28T07:15:53;22.27;;;10.85;;
71106;SDS011;58763;47.982;11.516;2023-02-28T07:18:23;21.67;;;10.93;;
71106;SDS011;58763;47.982;11.516;2023-02-28T07:20:49;24.17;;;10.65;;
71106;SDS011;58763;47.982;11.516;2023-02-28T07:23:15;24.00;;;10.75;;
71106;SDS011;58763;47.982;11.516;2023-02-28T07:25:40;24.60;;;11.45;;
71106;SDS011;58763;47.982;11.516;2023-02-28T07:28:06;21.95;;;11.35;;
71106;SDS011;58763;47.982;11.516;2023-02-28T07:30:31;21.40;;;11.05;;
71106;SDS011;58763;47.982;11.516;2023-02-28T07:32:58;22.40;;;10.73;;
71106;SDS011;58763;47.982;11.516;2023-02-28T07:35:24;23.48;;;11.35;;
71106;SDS011;58763;47.982;11.516;2023-02-28T07:37:50;23.05;;;11.32;;
71106;SDS011;58763;47.982;11.516;2023-02-28T07:40:15;22.05;;;11.40;;
71106;SDS011;58763;47.982;11.516;2023-02-28T07:42:43;21.75;;;11.38;;
71106;SDS011;58763;47.982;11.516;2023-02-28T07:45:09;22.02;;;11.65;;
71106;SDS011;58763;47.982;11.516;2023-02-28T07:47:37;26.50;;;12.77;;
71106;SDS011;58763;47.982;11.516;2023-02-28T07:50:04;23.00;;;11.38;;
71106;SDS011;58763;47.982;11.516;2023-02-28T07:52:31;25.50;;;12.02;;
71106;SDS011;58763;47.982;11.516;2023-02-28T07:54:57;25.38;;;12.45;;
71106;SDS011;58763;47.982;11.516;2023-02-28T07:57:22;26.23;;;12.45;;
71106;SDS011;58763;47.982;11.516;2023-02-28T07:59:48;25.65;;;12.52;;
71106;SDS011;58763;47.982;11.516;2023-02-28T08:02:14;24.73;;;11.93;;
71106;SDS011;58763;47.982;11.516;2023-02-28T08:04:41;24.75;;;12.13;;
71106;SDS011;58763;47.982;11.516;2023-02-28T08:07:07;23.80;;;12.25;;
71106;SDS011;58763;47.982;11.516;2023-02-28T08:09:33;22.15;;;12.35;;
71106;SDS011;58763;47.982;11.516;2023-02-28T08:11:59;25.85;;;12.18;;
71106;SDS011;58763;47.982;11.516;2023-02-28T08:14:25;24.48;;;12.50;;
71106;SDS011;58763;47.982;11.516;2023-02-28T08:16:50;23.80;;;12.73;;
71106;SDS011;58763;47.982;11.516;2023-02-28T08:19:16;25.73;;;12.25;;
71106;SDS011;58763;47.982;11.516;2023-02-28T08:21:42;24.30;;;12.02;;
71106;SDS011;58763;47.982;11.516;2023-02-28T08:24:07;22.42;;;11.48;;
71106;SDS011;58763;47.982;11.516;2023-02-28T08:26:33;24.25;;;12.65;;
71106;SDS011;58763;47.982;11.516;2023-02-28T08:28:59;26.13;;;12.15;;
71106;SDS011;58763;47.982;11.516;2023-02-28T08:31:24;24.23;;;11.95;;
71106;SDS011;58763;47.982;11.516;2023-02-28T08:33:50;22.65;;;11.52;;
71106;SDS011;58763;47.982;11.516;2023-02-28T08:36:18;28.10;;;13.35;;
71106;SDS011;58763;47.982;11.516;2023-02-28T08:38:44;25.02;;;12.68;;
71106;SDS011;58763;47.982;11.516;2023-02-28T08:41:11;26.65;;;12.00;;
71106;SDS011;58763;47.982;11.516;2023-02-28T08:43:38;27.75;;;12.27;;
71106;SDS011;58763;47.982;11.516;2023-02-28T08:46:05;23.67;;;12.00;;
71106;SDS011;58763;47.982;11.516;2023-02-28T08:48:32;26.88;;;12.50;;
71106;SDS011;58763;47.982;11.516;2023-02-28T08:51:01;25.50;;;12.32;;
71106;SDS011;58763;47.982;11.516;2023-02-28T08:53:31;24.83;;;11.73;;
71106;SDS011;58763;47.982;11.516;2023-02-28T08:56:01;22.95;;;12.23;;
71106;SDS011;58763;47.982;11.516;2023-02-28T08:58:29;27.08;;;13.57;;
71106;SDS011;58763;47.982;11.516;2023-02-28T09:00:54;23.83;;;12.27;;
71106;SDS011;58763;47.982;11.516;2023-02-28T09:03:20;29.58;;;13.77;;
71106;SDS011;58763;47.982;11.516;2023-02-28T09:05:57;25.75;;;12.65;;
71106;SDS011;58763;47.982;11.516;2023-02-28T09:08:24;25.40;;;12.32;;
71106;SDS011;58763;47.982;11.516;2023-02-28T09:10:52;24.80;;;12.32;;
71106;SDS011;58763;47.982;11.516;2023-02-28T09:13:22;24.88;;;13.32;;
71106;SDS011;58763;47.982;11.516;2023-02-28T09:15:48;26.85;;;13.35;;
71106;SDS011;58763;47.982;11.516;2023-02-28T09:18:14;23.17;;;12.43;;
71106;SDS011;58763;47.982;11.516;2023-02-28T09:20:40;22.08;;;12.18;;
71106;SDS011;58763;47.982;11.516;2023-02-28T09:23:07;25.40;;;11.98;;
71106;SDS011;58763;47.982;11.516;2023-02-28T09:25:34;26.30;;;12.40;;
71106;SDS011;58763;47.982;11.516;2023-02-28T09:28:00;21.13;;;11.32;;
71106;SDS011;58763;47.982;11.516;2023-02-28T09:30:26;23.45;;;12.35;;
71106;SDS011;58763;47.982;11.516;2023-02-28T09:32:52;23.20;;;12.27;;
71106;SDS011;58763;47.982;11.516;2023-02-28T09:35:19;24.70;;;12.35;;
71106;SDS011;58763;47.982;11.516;2023-02-28T09:37:46;24.88;;;12.45;;
71106;SDS011;58763;47.982;11.516;2023-02-28T09:40:13;22.55;;;11.60;;
71106;SDS011;58763;47.982;11.516;2023-02-28T09:42:42;25.17;;;11.23;;
71106;SDS011;58763;47.982;11.516;2023-02-28T09:45:19;24.98;;;12.52;;
71106;SDS011;58763;47.982;11.516;2023-02-28T09:47:52;24.83;;;12.70;;
71106;SDS011;58763;47.982;11.516;2023-02-28T09:50:33;26.63;;;13.10;;
71106;SDS011;58763;47.982;11.516;2023-02-28T09:53:06;25.50;;;12.35;;
71106;SDS011;58763;47.982;11.516;2023-02-28T09:55:45;21.77;;;11.23;;
71106;SDS011;58763;47.982;11.516;2023-02-28T09:58:19;21.50;;;11.50;;
71106;SDS011;58763;47.982;11.516;2023-02-28T10:00:55;24.40;;;12.45;;
71106;SDS011;58763;47.982;11.516;2023-02-28T10:03:30;25.50;;;12.63;;
71106;SDS011;58763;47.982;11.516;2023-02-28T10:06:17;24.85;;;12.57;;
71106;SDS011;58763;47.982;11.516;2023-02-28T10:11:35;26.47;;;12.10;;
71106;SDS011;58763;47.982;11.516;2023-02-28T10:14:13;22.58;;;12.05;;
71106;SDS011;58763;47.982;11.516;2023-02-28T10:16:55;25.23;;;12.05;;
71106;SDS011;58763;47.982;11.516;2023-02-28T10:19:28;23.55;;;12.07;;
71106;SDS011;58763;47.982;11.516;2023-02-28T10:22:00;23.20;;;12.13;;
71106;SDS011;58763;47.982;11.516;2023-02-28T10:27:21;25.45;;;13.15;;
71106;SDS011;58763;47.982;11.516;2023-02-28T10:29:52;23.63;;;12.00;;
71106;SDS011;58763;47.982;11.516;2023-02-28T10:32:22;26.75;;;12.63;;
71106;SDS011;58763;47.982;11.516;2023-02-28T10:34:52;25.95;;;13.07;;
71106;SDS011;58763;47.982;11.516;2023-02-28T10:39:47;24.60;;;12.88;;
71106;SDS011;58763;47.982;11.516;2023-02-28T10:42:23;26.48;;;12.80;;
71106;SDS011;58763;47.982;11.516;2023-02-28T10:45:13;24.95;;;13.20;;
71106;SDS011;58763;47.982;11.516;2023-02-28T10:50:26;23.23;;;12.60;;
71106;SDS011;58763;47.982;11.516;2023-02-28T10:52:52;23.98;;;13.18;;
71106;SDS011;58763;47.982;11.516;2023-02-28T10:55:20;24.27;;;13.10;;
71106;SDS011;58763;47.982;11.516;2023-02-28T10:57:50;24.58;;;13.60;;
71106;SDS011;58763;47.982;11.516;2023-02-28T11:00:21;23.60;;;12.18;;
71106;SDS011;58763;47.982;11.516;2023-02-28T11:02:50;25.25;;;13.40;;
71106;SDS011;58763;47.982;11.516;2023-02-28T11:05:23;23.77;;;13.38;;
71106;SDS011;58763;47.982;11.516;2023-02-28T11:10:53;23.38;;;12.07;;
71106;SDS011;58763;47.982;11.516;2023-02-28T11:13:21;24.38;;;12.60;;
71106;SDS011;58763;47.982;11.516;2023-02-28T11:16:00;24.55;;;12.68;;
71106;SDS011;58763;47.982;11.516;2023-02-28T11:18:46;29.58;;;13.45;;
71106;SDS011;58763;47.982;11.516;2023-02-28T11:23:56;23.90;;;12.90;;
71106;SDS011;58763;47.982;11.516;2023-02-28T11:26:48;23.95;;;13.18;;
71106;SDS011;58763;47.982;11.516;2023-02-28T11:29:24;26.20;;;13.82;;
71106;SDS011;58763;47.982;11.516;2023-02-28T11:34:39;24.98;;;13.93;;
71106;SDS011;58763;47.982;11.516;2023-02-28T11:37:09;28.00;;;14.25;;
71106;SDS011;58763;47.982;11.516;2023-02-28T11:39:41;27.02;;;13.48;;
71106;SDS011;58763;47.982;11.516;2023-02-28T11:47:48;25.00;;;12.63;;
71106;SDS011;58763;47.982;11.516;2023-02-28T11:53:21;24.65;;;13.48;;
71106;SDS011;58763;47.982;11.516;2023-02-28T11:55:59;24.40;;;13.10;;
71106;SDS011;58763;47.982;11.516;2023-02-28T11:58:37;25.17;;;13.07;;
71106;SDS011;58763;47.982;11.516;2023-02-28T12:07:02;25.75;;;13.45;;
71106;SDS011;58763;47.982;11.516;2023-02-28T12:18:19;22.77;;;13.07;;
71106;SDS011;58763;47.982;11.516;2023-02-28T12:20:58;25.67;;;13.43;;
71106;SDS011;58763;47.982;11.516;2023-02-28T12:26:29;24.05;;;12.95;;
71106;SDS011;58763;47.982;11.516;2023-02-28T12:29:30;21.15;;;12.25;;
71106;SDS011;58763;47.982;11.516;2023-02-28T12:31:59;22.88;;;12.80;;
71106;SDS011;58763;47.982;11.516;2023-02-28T12:34:33;23.45;;;12.82;;
71106;SDS011;58763;47.982;11.516;2023-02-28T12:37:08;23.73;;;13.27;;
71106;SDS011;58763;47.982;11.516;2023-02-28T12:39:41;24.55;;;12.50;;
71106;SDS011;58763;47.982;11.516;2023-02-28T12:42:12;23.75;;;13.15;;
71106;SDS011;58763;47.982;11.516;2023-02-28T12:45:01;23.17;;;13.10;;
71106;SDS011;58763;47.982;11.516;2023-02-28T12:47:34;22.27;;;12.70;;
71106;SDS011;58763;47.982;11.516;2023-02-28T12:50:03;22.95;;;13.10;;
71106;SDS011;58763;47.982;11.516;2023-02-28T12:52:35;22.00;;;12.55;;
71106;SDS011;58763;47.982;11.516;2023-02-28T12:55:14;22.42;;;12.57;;
71106;SDS011;58763;47.982;11.516;2023-02-28T12:57:45;23.58;;;13.45;;
71106;SDS011;58763;47.982;11.516;2023-02-28T13:00:19;22.80;;;12.60;;
71106;SDS011;58763;47.982;11.516;2023-02-28T13:09:11;23.23;;;12.70;;
71106;SDS011;58763;47.982;11.516;2023-02-28T13:14:03;22.80;;;12.80;;
71106;SDS011;58763;47.982;11.516;2023-02-28T13:19:28;22.13;;;12.88;;
71106;SDS011;58763;47.982;11.516;2023-02-28T13:21:56;22.27;;;12.35;;
71106;SDS011;58763;47.982;11.516;2023-02-28T13:27:11;21.52;;;12.30;;
71106;SDS011;58763;47.982;11.516;2023-02-28T13:29:53;21.48;;;12.73;;
71106;SDS011;58763;47.982;11.516;2023-02-28T13:39:50;24.25;;;13.30;;
71106;SDS011;58763;47.982;11.516;2023-02-28T13:48:14;22.75;;;13.77;;
71106;SDS011;58763;47.982;11.516;2023-02-28T14:09:24;22.08;;;13.75;;
71106;SDS011;58763;47.982;11.516;2023-02-28T14:18:17;19.85;;;12.05;;
71106;SDS011;58763;47.982;11.516;2023-02-28T14:20:47;21.60;;;12.73;;
71106;SDS011;58763;47.982;11.516;2023-02-28T14:32:01;19.75;;;12.68;;
71106;SDS011;58763;47.982;11.516;2023-02-28T14:37:19;21.20;;;12.48;;
71106;SDS011;58763;47.982;11.516;2023-02-28T14:39:51;20.45;;;12.73;;
71106;SDS011;58763;47.982;11.516;2023-02-28T14:42:29;20.25;;;12.55;;
71106;SDS011;58763;47.982;11.516;2023-02-28T14:44:58;23.85;;;12.45;;
71106;SDS011;58763;47.982;11.516;2023-02-28T14:47:25;21.10;;;12.57;;
71106;SDS011;58763;47.982;11.516;2023-02-28T14:49:55;23.80;;;13.35;;
71106;SDS011;58763;47.982;11.516;2023-02-28T14:52:23;19.80;;;12.13;;
71106;SDS011;58763;47.982;11.516;2023-02-28T14:54:55;19.92;;;12.65;;
71106;SDS011;58763;47.982;11.516;2023-02-28T14:57:28;19.85;;;12.38;;
71106;SDS011;58763;47.982;11.516;2023-02-28T15:02:37;20.48;;;12.55;;
71106;SDS011;58763;47.982;11.516;2023-02-28T15:05:15;22.75;;;13.18;;
71106;SDS011;58763;47.982;11.516;2023-02-28T15:07:59;23.38;;;13.70;;
71106;SDS011;58763;47.982;11.516;2023-02-28T15:10:27;22.10;;;13.20;;
71106;SDS011;58763;47.982;11.516;2023-02-28T15:12:57;23.80;;;13.57;;
71106;SDS011;58763;47.982;11.516;2023-02-28T15:15:27;22.27;;;13.30;;
71106;SDS011;58763;47.982;11.516;2023-02-28T15:18:01;21.42;;;13.13;;
71106;SDS011;58763;47.982;11.516;2023-02-28T15:20:30;24.65;;;13.27;;
71106;SDS011;58763;47.982;11.516;2023-02-28T15:22:57;22.92;;;12.93;;
71106;SDS011;58763;47.982;11.516;2023-02-28T15:25:22;22.65;;;13.15;;
71106;SDS011;58763;47.982;11.516;2023-02-28T15:27:50;22.85;;;14.07;;
71106;SDS011;58763;47.982;11.516;2023-02-28T15:30:21;22.23;;;14.07;;
71106;SDS011;58763;47.982;11.516;2023-02-28T15:33:03;24.65;;;13.10;;
71106;SDS011;58763;47.982;11.516;2023-02-28T15:35:47;26.33;;;14.30;;
71106;SDS011;58763;47.982;11.516;2023-02-28T15:38:16;22.40;;;13.60;;
71106;SDS011;58763;47.982;11.516;2023-02-28T15:43:23;22.42;;;13.27;;
71106;SDS011;58763;47.982;11.516;2023-02-28T15:53:34;24.55;;;14.38;;
71106;SDS011;58763;47.982;11.516;2023-02-28T15:56:06;24.48;;;14.40;;
71106;SDS011;58763;47.982;11.516;2023-02-28T15:58:46;25.73;;;14.23;;
71106;SDS011;58763;47.982;11.516;2023-02-28T16:01:28;24.30;;;14.70;;
71106;SDS011;58763;47.982;11.516;2023-02-28T16:03:58;25.15;;;14.45;;
71106;SDS011;58763;47.982;11.516;2023-02-28T16:09:01;23.27;;;13.40;;
71106;SDS011;58763;47.982;11.516;2023-02-28T16:11:28;24.00;;;13.98;;
71106;SDS011;58763;47.982;11.516;2023-02-28T16:13:55;22.20;;;13.55;;
71106;SDS011;58763;47.982;11.516;2023-02-28T16:16:22;26.20;;;15.30;;
71106;SDS011;58763;47.982;11.516;2023-02-28T16:18:51;21.23;;;13.00;;
71106;SDS011;58763;47.982;11.516;2023-02-28T16:21:17;24.33;;;14.32;;
71106;SDS011;58763;47.982;11.516;2023-02-28T16:23:42;22.75;;;13.48;;
71106;SDS011;58763;47.982;11.516;2023-02-28T16:26:08;21.70;;;13.55;;
71106;SDS011;58763;47.982;11.516;2023-02-28T16:28:43;24.92;;;14.38;;
71106;SDS011;58763;47.982;11.516;2023-02-28T16:31:09;24.98;;;14.80;;
71106;SDS011;58763;47.982;11.516;2023-02-28T16:33:41;24.08;;;14.90;;
71106;SDS011;58763;47.982;11.516;2023-02-28T16:36:20;26.42;;;14.27;;
71106;SDS011;58763;47.982;11.516;2023-02-28T16:38:47;28.20;;;14.35;;
71106;SDS011;58763;47.982;11.516;2023-02-28T16:41:14;38.67;;;19.90;;
71106;SDS011;58763;47.982;11.516;2023-02-28T16:43:45;31.92;;;17.00;;
71106;SDS011;58763;47.982;11.516;2023-02-28T16:46:12;28.15;;;16.27;;
71106;SDS011;58763;47.982;11.516;2023-02-28T16:48:38;28.55;;;16.42;;
71106;SDS011;58763;47.982;11.516;2023-02-28T16:51:06;25.30;;;14.40;;
71106;SDS011;58763;47.982;11.516;2023-02-28T16:56:01;23.23;;;13.15;;
71106;SDS011;58763;47.982;11.516;2023-02-28T16:58:27;23.02;;;13.20;;
71106;SDS011;58763;47.982;11.516;2023-02-28T17:00:53;24.02;;;14.18;;
71106;SDS011;58763;47.982;11.516;2023-02-28T17:03:23;23.08;;;12.88;;
71106;SDS011;58763;47.982;11.516;2023-02-28T17:05:50;25.33;;;14.57;;
71106;SDS011;58763;47.982;11.516;2023-02-28T17:08:16;24.70;;;14.27;;
71106;SDS011;58763;47.982;11.516;2023-02-28T17:10:42;24.20;;;13.85;;
71106;SDS011;58763;47.982;11.516;2023-02-28T17:13:08;27.27;;;14.30;;
71106;SDS011;58763;47.982;11.516;2023-02-28T17:15:34;25.40;;;14.52;;
71106;SDS011;58763;47.982;11.516;2023-02-28T17:18:01;24.73;;;13.68;;
71106;SDS011;58763;47.982;11.516;2023-02-28T17:20:27;25.42;;;14.65;;